Latest Weather Observations for Rutherglen

IDV60801

Issued at 11:31 pm EST Sunday 29 May 2016 (issued every 30 minutes, with the page automatically refreshed every 10 minutes)

About weather observations | Map of weather stations | Latest weather observations for VIC | Other Formats
Station Details ID: 082039 Name: RUTHERGLEN RESEARCH Lat: -36.10 Lon: 146.51 Height: 175.0 m
Data from the previous 72 hours. | See also: Recent months at Rutherglen
Date/Time
EST
Temp
°C
App
Temp
°C
Dew
Point
Rel
Hum
%
Delta-T
°C
Wind Press
QNH
hPa
Press
MSL
hPa
Rain
since 9 am
mm
Dir
 
Spd
km/h
Gust
km/h
Spd
kts
Gust
kts
29/11:30pm 0.7 -1.2 0.7 100 0.0 CALM 0 0 0 0 - - 0.0
29/11:00pm 1.7 -0.4 1.7 100 0.0 ESE 2 6 1 3 - - 0.0
29/10:30pm 1.6 -0.1 1.6 100 0.0 CALM 0 0 0 0 - - 0.0
29/10:00pm 1.1 -1.9 1.1 100 0.0 ESE 6 7 3 4 - - 0.0
29/09:30pm 1.9 0.2 1.9 100 0.0 CALM 0 0 0 0 - - 0.0
29/09:00pm 2.6 1.0 2.6 100 0.0 CALM 0 0 0 0 - - 0.0
29/08:30pm 3.3 1.9 3.3 100 0.0 CALM 0 0 0 0 - - 0.0
29/08:00pm 3.8 2.4 3.8 100 0.0 CALM 0 0 0 0 - - 0.0
29/07:30pm 4.4 3.2 4.4 100 0.0 CALM 0 0 0 0 - - 0.0
29/07:00pm 5.5 4.5 5.4 99 0.0 CALM 0 0 0 0 - - 0.0
29/06:30pm 6.9 6.1 6.5 97 0.2 CALM 0 0 0 0 - - 0.0
29/06:00pm 7.3 6.3 5.6 89 0.8 CALM 0 0 0 0 - - 0.0
29/05:30pm 8.5 7.5 5.6 82 1.3 CALM 0 2 0 1 - - 0.0
29/05:00pm 9.6 6.9 5.4 75 1.9 W 9 11 5 6 - - 0.0
29/04:30pm 11.8 9.0 5.2 64 3.1 WSW 9 11 5 6 - - 0.0
29/04:00pm 12.5 9.8 5.4 62 3.3 SW 9 15 5 8 - - 0.0
29/03:30pm 12.4 8.8 4.9 60 3.5 SW 13 19 7 10 - - 0.0
29/03:00pm 12.6 8.7 5.5 62 3.3 WSW 15 19 8 10 - - 0.0
29/02:30pm 13.1 9.0 6.2 63 3.3 WSW 17 24 9 13 - - 0.0
29/02:00pm 13.2 8.8 6.5 64 3.2 WSW 19 32 10 17 - - 0.0
29/01:30pm 11.9 8.0 5.5 65 3.0 WSW 15 20 8 11 - - 0.0
29/01:00pm 12.0 7.8 5.9 66 2.9 SW 17 22 9 12 - - 0.0
29/12:30pm 12.3 9.1 7.0 70 2.6 SW 13 17 7 9 - - 0.0
29/12:00pm 12.2 9.5 7.3 72 2.4 W 11 17 6 9 - - 0.0
29/11:30am 11.2 8.4 7.1 76 2.0 W 11 19 6 10 - - 0.0
29/11:00am 10.5 8.1 7.0 79 1.7 W 9 15 5 8 - - 0.0
29/10:30am 10.0 8.0 7.3 83 1.3 WNW 7 11 4 6 - - 0.0
29/10:00am 9.2 7.4 7.8 91 0.7 WNW 7 11 4 6 - - 0.0
29/09:30am 8.7 8.4 8.7 100 0.0 CALM 0 0 0 0 - - 0.0
29/09:00am 6.3 5.5 6.3 100 0.0 CALM 0 0 0 0 - - 0.0
29/08:30am 4.5 3.3 4.5 100 0.0 CALM 0 0 0 0 - - 0.0
29/08:00am 2.4 0.8 2.4 100 0.0 CALM 0 0 0 0 - - 0.0
29/07:30am 0.7 -1.9 0.7 100 0.0 E 4 7 2 4 - - 0.0
29/07:00am 0.9 -0.9 0.9 100 0.0 CALM 0 6 0 3 - - 0.0
29/06:30am 1.3 -0.5 1.3 100 0.0 CALM 0 0 0 0 - - 0.0
29/06:00am 2.2 -0.6 2.2 100 0.0 W 6 6 3 3 - - 0.0
29/05:30am 2.3 -0.7 2.3 100 0.0 W 7 7 4 4 - - 0.0
29/05:00am 2.9 1.4 2.9 100 0.0 CALM 0 0 0 0 - - 0.0
29/04:30am 3.5 1.3 3.5 100 0.0 SE 4 6 2 3 - - 0.0
29/04:00am 3.8 1.3 3.8 100 0.0 W 6 7 3 4 - - 0.0
29/03:30am 4.1 1.5 4.1 100 0.0 W 7 9 4 5 - - 0.0
29/03:00am 4.7 2.2 4.7 100 0.0 W 7 9 4 5 - - 0.0
29/02:30am 5.9 3.6 5.9 100 0.0 W 7 9 4 5 - - 0.0
29/02:00am 6.5 4.3 6.4 99 0.0 W 7 9 4 5 - - 0.0
29/01:30am 6.7 4.6 6.7 100 0.0 WSW 7 9 4 5 - - 0.0
29/01:00am 5.5 3.1 5.4 99 0.0 SW 7 7 4 4 - - 0.0
29/12:30am 5.7 3.4 5.6 99 0.0 SW 7 9 4 5 - - 0.0
29/12:00am 5.8 2.7 5.7 99 0.0 WSW 11 15 6 8 - - 0.0
 
Date/Time
EST
Temp
°C
App
Temp
°C
Dew
Point
Rel
Hum
%
Delta-T
°C
Wind Press
QNH
hPa
Press
MSL
hPa
Rain
since 9 am
mm
Dir
 
Spd
km/h
Gust
km/h
Spd
kts
Gust
kts
28/11:30pm 6.4 3.3 5.5 94 0.4 WSW 11 15 6 8 - - 0.0
28/11:00pm 7.1 3.7 6.0 93 0.5 SW 13 19 7 10 - - 0.0
28/10:30pm 7.1 3.4 6.2 94 0.4 SW 15 19 8 10 - - 0.0
28/10:00pm 7.1 3.3 6.0 93 0.5 WSW 15 19 8 10 - - 0.0
28/09:30pm 7.6 4.2 5.9 89 0.8 SW 13 17 7 9 - - 0.0
28/09:00pm 8.0 4.6 6.1 88 0.9 SW 13 17 7 9 - - 0.0
28/08:30pm 8.0 5.1 6.3 89 0.8 SW 11 15 6 8 - - 0.0
28/08:00pm 8.5 4.8 6.5 87 0.9 WSW 15 20 8 11 - - 0.0
28/07:30pm 8.7 5.4 6.2 84 1.2 WSW 13 17 7 9 - - 0.0
28/07:00pm 8.9 5.2 6.2 83 1.3 WSW 15 19 8 10 - - 0.0
28/06:30pm 9.4 6.0 5.9 79 1.6 W 13 17 7 9 - - 0.0
28/06:00pm 9.1 6.1 5.8 80 1.5 WSW 11 13 6 7 - - 0.0
28/05:30pm 10.3 6.9 5.9 74 2.1 WSW 13 19 7 10 - - 0.0
28/05:00pm 11.3 7.2 6.0 70 2.5 WSW 17 26 9 14 - - 0.0
28/04:30pm 12.7 8.1 5.8 63 3.3 SW 19 26 10 14 - - 0.0
28/04:00pm 13.0 8.3 5.9 62 3.4 WSW 20 28 11 15 - - 0.0
28/03:30pm 13.1 8.2 5.0 58 3.8 SW 20 30 11 16 - - 0.0
28/03:00pm 13.1 8.7 5.0 58 3.8 SSW 17 26 9 14 - - 0.0
28/02:30pm 13.8 9.5 5.4 57 4.0 SW 17 28 9 15 - - 0.0
28/02:00pm 13.2 9.3 5.4 59 3.7 SW 15 24 8 13 - - 0.0
28/01:30pm 13.0 8.2 4.9 58 3.8 WSW 19 28 10 15 - - 0.0
28/01:00pm 12.7 8.5 5.8 63 3.3 WSW 17 22 9 12 - - 0.0
28/12:30pm 12.4 8.8 6.9 69 2.7 SW 15 24 8 13 - - 0.0
28/12:00pm 11.3 7.6 6.4 72 2.3 SW 15 19 8 10 - - 0.0
28/11:30am 11.1 7.1 6.5 73 2.2 WSW 17 22 9 12 - - 0.0
28/11:00am 9.9 6.2 6.3 78 1.7 WSW 15 20 8 11 - - 0.0
28/10:30am 11.5 9.8 8.4 81 1.5 NW 7 9 4 5 - - 0.0
28/10:00am 10.5 8.6 8.9 90 0.8 WNW 9 11 5 6 - - 0.0
28/09:30am 9.3 6.8 8.2 93 0.5 WNW 11 15 6 8 - - 0.0
28/09:00am 8.4 6.9 8.3 99 0.0 WNW 6 7 3 4 - - 0.2
28/08:30am 8.5 6.8 8.5 100 0.0 W 7 9 4 5 - - 0.2
28/08:00am 8.2 7.0 8.2 100 0.0 NW 4 6 2 3 - - 0.2
28/07:30am 8.1 7.7 8.1 100 0.0 CALM 0 0 0 0 - - 0.2
28/07:00am 7.8 6.9 7.8 100 0.0 SW 2 7 1 4 - - 0.2
28/06:30am 7.7 7.2 7.7 100 0.0 CALM 0 0 0 0 - - 0.2
28/06:00am 7.6 6.3 7.6 100 0.0 W 4 6 2 3 - - 0.2
28/05:30am 7.9 7.4 7.9 100 0.0 CALM 0 0 0 0 - - 0.2
28/05:00am 7.9 7.4 7.9 100 0.0 CALM 0 0 0 0 - - 0.2
28/04:30am 8.1 6.5 8.1 100 0.0 NE 6 7 3 4 - - 0.2
28/04:00am 7.9 6.1 7.9 100 0.0 ENE 7 7 4 4 - - 0.2
28/03:30am 7.6 5.7 7.6 100 0.0 SE 7 7 4 4 - - 0.2
28/03:00am 7.8 6.0 7.8 100 0.0 E 7 9 4 5 - - 0.2
28/02:30am 7.4 5.7 7.4 100 0.0 W 6 7 3 4 - - 0.2
28/02:00am 7.4 5.5 7.4 100 0.0 E 7 9 4 5 - - 0.0
28/01:30am 6.4 4.8 6.4 100 0.0 SE 4 7 2 4 - - 0.0
28/01:00am 6.0 3.8 6.0 100 0.0 SSE 7 9 4 5 - - 0.0
28/12:30am 5.5 3.3 5.5 100 0.0 SE 6 6 3 3 - - 0.0
28/12:00am 4.7 2.4 4.7 100 0.0 ESE 6 6 3 3 - - 0.0
 
Date/Time
EST
Temp
°C
App
Temp
°C
Dew
Point
Rel
Hum
%
Delta-T
°C
Wind Press
QNH
hPa
Press
MSL
hPa
Rain
since 9 am
mm
Dir
 
Spd
km/h
Gust
km/h
Spd
kts
Gust
kts
27/11:30pm 3.2 0.4 3.2 100 0.0 ESE 7 9 4 5 - - 0.0
27/11:00pm 2.9 0.2 2.9 100 0.0 ESE 6 9 3 5 - - 0.0
27/10:30pm 2.7 -0.2 2.7 100 0.0 ESE 7 9 4 5 - - 0.0
27/10:00pm 2.6 -0.3 2.6 100 0.0 ENE 7 9 4 5 - - 0.0
27/09:30pm 3.1 0.9 3.1 100 0.0 ESE 4 7 2 4 - - 0.0
27/09:00pm 3.0 0.4 3.0 100 0.0 ESE 6 7 3 4 - - 0.0
27/08:30pm 3.7 2.3 3.7 100 0.0 CALM 0 0 0 0 - - 0.0
27/08:00pm 3.3 0.5 3.3 100 0.0 ESE 7 9 4 5 - - 0.0
27/07:30pm 4.0 1.4 4.0 100 0.0 E 7 7 4 4 - - 0.0
27/07:00pm 5.0 3.1 5.0 100 0.0 NE 4 6 2 3 - - 0.0
27/06:30pm 5.7 4.7 5.6 99 0.0 CALM 0 0 0 0 - - 0.0
27/06:00pm 8.3 7.5 6.4 88 0.9 CALM 0 0 0 0 - - 0.0
27/05:30pm 9.6 7.6 6.1 79 1.6 NW 6 7 3 4 - - 0.0
27/05:00pm 10.6 8.0 6.2 74 2.1 NW 9 13 5 7 - - 0.0
27/04:30pm 12.0 9.6 6.9 71 2.5 W 9 17 5 9 - - 0.0
27/04:00pm 12.6 8.4 5.5 62 3.3 WSW 17 26 9 14 - - 0.0
27/03:30pm 12.8 8.9 7.3 69 2.7 WSW 17 24 9 13 - - 0.0
27/03:00pm 11.4 7.8 6.7 73 2.2 W 15 20 8 11 - - 0.0
27/02:30pm 13.0 8.5 7.0 67 2.9 WNW 20 28 11 15 - - 0.0
27/02:00pm 13.1 8.5 6.7 65 3.1 W 20 28 11 15 - - 0.0
27/01:30pm 13.2 8.4 7.4 68 2.9 WSW 22 28 12 15 - - 0.0
27/01:00pm 12.7 7.9 7.4 70 2.6 WSW 22 30 12 16 - - 0.0
27/12:30pm 11.9 8.1 7.6 75 2.1 WSW 17 28 9 15 - - 0.0
27/12:00pm 12.1 8.1 8.4 78 1.8 WSW 19 26 10 14 - - 0.0
27/11:30am 11.2 8.0 8.4 83 1.4 WSW 15 24 8 13 - - 0.0
27/11:00am 10.5 8.1 8.6 88 0.9 WSW 11 17 6 9 - - 0.0
27/10:30am 9.6 7.4 8.0 90 0.8 WSW 9 13 5 7 - - 0.0
27/10:00am 9.3 6.5 8.7 96 0.3 WSW 13 19 7 10 - - 0.0
27/09:30am 8.3 4.7 8.2 99 0.0 W 17 22 9 12 - - 0.0
27/09:00am 7.1 4.7 7.1 100 0.0 WNW 9 11 5 6 - - 4.0
27/08:30am 6.6 4.5 6.6 100 0.0 WNW 7 11 4 6 - - 4.0
27/08:00am 4.9 3.4 4.9 100 0.0 WNW 2 6 1 3 - - 4.0
27/07:30am 3.6 1.8 3.6 100 0.0 NW 2 6 1 3 - - 4.0
27/07:00am 3.8 1.1 3.8 100 0.0 WSW 7 9 4 5 - - 4.0
27/06:30am 4.6 3.4 4.6 100 0.0 CALM 0 0 0 0 - - 4.0
27/06:00am 4.2 2.9 4.2 100 0.0 CALM 0 6 0 3 - - 4.0
27/05:30am 5.7 2.6 5.7 100 0.0 SW 11 15 6 8 - - 4.0
27/05:00am 5.3 2.1 5.3 100 0.0 WSW 11 13 6 7 - - 4.0
27/04:30am 5.9 2.9 5.9 100 0.0 WSW 11 15 6 8 - - 4.0
27/04:00am 6.2 2.5 6.1 99 0.0 WSW 15 19 8 10 - - 4.0
27/03:30am 6.5 2.1 6.4 99 0.0 W 19 28 10 15 - - 4.0
27/03:00am 6.7 1.4 6.6 99 0.0 W 24 32 13 17 - - 4.0
27/02:30am 6.9 2.0 6.8 99 0.0 W 22 28 12 15 - - 4.0
27/02:00am 7.0 2.1 6.9 99 0.0 W 22 32 12 17 - - 4.0
27/01:30am 7.3 3.0 7.2 99 0.0 W 19 26 10 14 - - 4.0
27/01:00am 7.4 4.3 7.3 99 0.0 W 13 20 7 11 - - 4.0
27/12:30am 7.6 5.3 7.5 99 0.0 W 9 17 5 9 - - 4.0
27/12:00am 7.7 5.8 7.6 99 0.0 W 7 13 4 7 - - 4.0

Other Formats:

Comma delimited format used in spreadsheet applications
http://www.bom.gov.au/fwo/IDV60801/IDV60801.95837.axf

JavaScript Object Notation format (JSON) in row-major order
http://www.bom.gov.au/fwo/IDV60801/IDV60801.95837.json